KMEV/MEV METAR and TAF weather

Enter ICAO airport designator
Station Type Date Time Source
KMEV METAR 2020/04/05 22:55 UTC NOAA

KMEV 052255Z AUTO 18020G26KT 10SM CLR 07/01 A2960 RMK AO2 LTG DSNT S AND SW


Station Type Date Time Source
KMEV Decoded METAR 2020/04/05 22:55 UTC NOAA

Station name not available
Apr 05, 2020 - 06:55 PM EDT / 2020.04.05 2255 UTC
Wind: from the S (180 degrees) at 23 MPH (20 KT) gusting to 30 MPH (26 KT):0
Visibility: 10 mile(s):0
Sky conditions: clear
Weather: Lightning observed
Temperature: 44 F (7 C)
Dew Point: 33 F (1 C)
Relative Humidity: 65%
Pressure (altimeter): 29.6 in. Hg (1002 hPa)
ob: KMEV 052255Z AUTO 18020G26KT 10SM CLR 07/01 A2960 RMK AO2 LTG DSNT S AND SW
cycle: 23

Station Type Date Time Source
KMEV TAF 2020/04/05 18:39 UTC NOAA

TAF KMEV 051738Z 0518/0618 18015G25KT P6SM -RA SCT025 BKN040 WS020/24035KT
FM060500 28008KT 2SM -SN OVC010
FM061000 VRB05KT P6SM SCT020 BKN050

Example: see airport list